createdAt,value
2023-06-20T00:00:42.192Z,13.90
2023-06-20T00:03:10.876Z,14.90
2023-06-20T00:05:39.689Z,14.48
2023-06-20T00:08:08.742Z,14.02
2023-06-20T00:10:37.539Z,15.25
2023-06-20T00:13:07.990Z,14.73
2023-06-20T00:15:36.778Z,15.32
2023-06-20T00:18:08.046Z,16.40
2023-06-20T00:20:37.680Z,16.15
2023-06-20T00:23:06.434Z,15.85
2023-06-20T00:25:35.725Z,16.45
2023-06-20T00:28:04.653Z,15.70
2023-06-20T00:30:35.136Z,17.38
2023-06-20T00:33:04.021Z,17.67
2023-06-20T00:35:32.856Z,17.55
2023-06-20T00:38:04.179Z,18.67
2023-06-20T00:40:35.299Z,18.80
2023-06-20T00:43:05.277Z,16.23
2023-06-20T00:45:36.460Z,16.40
2023-06-20T00:48:07.766Z,17.80
2023-06-20T00:50:36.974Z,17.75
2023-06-20T00:53:07.464Z,19.45
2023-06-20T00:55:37.574Z,18.83
2023-06-20T00:58:07.296Z,18.42
2023-06-20T01:00:40.069Z,18.40
2023-06-20T01:03:12.416Z,15.60
2023-06-20T01:05:42.869Z,15.40
2023-06-20T01:08:19.359Z,13.07
2023-06-20T01:10:58.168Z,12.80
2023-06-20T01:13:39.412Z,10.95
2023-06-20T01:16:19.411Z,9.55
2023-06-20T01:18:59.022Z,10.10
2023-06-20T01:21:34.187Z,9.60
2023-06-20T01:24:10.300Z,10.85
2023-06-20T01:26:46.485Z,10.75
2023-06-20T01:29:20.163Z,10.52
2023-06-20T01:31:54.148Z,11.82
2023-06-20T01:34:25.663Z,11.27
2023-06-20T01:36:58.304Z,11.68
2023-06-20T01:39:32.317Z,12.85
2023-06-20T01:42:05.330Z,13.43
2023-06-20T01:44:37.799Z,13.32
2023-06-20T01:47:09.497Z,13.52
2023-06-20T01:49:39.721Z,13.25
2023-06-20T01:52:12.431Z,13.73
2023-06-20T01:54:48.117Z,16.02
2023-06-20T01:57:19.015Z,18.27
2023-06-20T01:59:51.384Z,17.23
2023-06-20T02:02:21.962Z,16.42
2023-06-20T02:04:52.142Z,17.40
2023-06-20T02:07:21.019Z,15.32
2023-06-20T02:09:51.914Z,16.88
2023-06-20T02:12:21.499Z,15.60
2023-06-20T02:14:52.714Z,13.43
2023-06-20T02:17:21.941Z,13.38
2023-06-20T02:19:50.725Z,13.25
2023-06-20T02:22:20.996Z,13.57
2023-06-20T02:24:54.397Z,15.10
2023-06-20T02:27:24.332Z,15.50
2023-06-20T02:29:54.114Z,18.10
2023-06-20T02:32:24.423Z,17.65
2023-06-20T02:34:56.796Z,17.05
2023-06-20T02:37:28.965Z,19.63
2023-06-20T02:40:00.384Z,18.75
2023-06-20T02:42:29.117Z,20.67
2023-06-20T02:44:59.066Z,19.77
2023-06-20T02:47:37.915Z,22.95
2023-06-20T02:50:13.696Z,23.15
2023-06-20T02:52:49.623Z,24.27
2023-06-20T02:55:29.663Z,23.17
2023-06-20T02:58:02.482Z,24.27
2023-06-20T03:00:32.881Z,23.40
2023-06-20T03:03:09.398Z,23.17
2023-06-20T03:05:44.867Z,23.23
2023-06-20T03:08:15.877Z,25.30
2023-06-20T03:10:48.199Z,25.98
2023-06-20T03:13:18.026Z,24.08
2023-06-20T03:15:52.233Z,25.50
2023-06-20T03:18:22.262Z,25.05
2023-06-20T03:20:51.342Z,24.52
2023-06-20T03:23:20.188Z,26.98
2023-06-20T03:25:50.308Z,25.67
2023-06-20T03:28:20.392Z,27.02
2023-06-20T03:30:54.747Z,27.88
2023-06-20T03:33:27.388Z,28.55
2023-06-20T03:35:56.491Z,28.33
2023-06-20T03:38:25.310Z,29.20
2023-06-20T03:40:55.858Z,29.48
2023-06-20T03:43:25.094Z,29.33
2023-06-20T03:45:53.841Z,31.77
2023-06-20T03:48:23.442Z,31.05
2023-06-20T03:50:54.379Z,33.38
2023-06-20T03:53:24.115Z,33.40
2023-06-20T03:55:54.320Z,33.22
2023-06-20T03:58:23.148Z,36.30
2023-06-20T04:00:52.159Z,36.80
2023-06-20T04:03:21.330Z,40.38
2023-06-20T04:05:50.246Z,40.20
2023-06-20T04:08:19.015Z,40.78
2023-06-20T04:10:47.848Z,40.80
2023-06-20T04:13:21.219Z,38.65
2023-06-20T04:15:50.105Z,36.28
2023-06-20T04:18:18.893Z,34.85
2023-06-20T04:20:58.751Z,33.38
2023-06-20T04:23:30.443Z,33.28
2023-06-20T04:25:59.542Z,33.47
2023-06-20T04:28:30.301Z,31.52
2023-06-20T04:31:01.816Z,31.25
2023-06-20T04:33:30.800Z,33.50
2023-06-20T04:36:00.889Z,34.95
2023-06-20T04:38:34.441Z,33.35
2023-06-20T04:41:04.866Z,33.35
2023-06-20T04:43:36.590Z,36.53
2023-06-20T04:46:05.989Z,36.42
2023-06-20T04:48:36.992Z,41.85
2023-06-20T04:51:08.977Z,44.38
2023-06-20T04:53:38.202Z,38.30
2023-06-20T04:56:07.173Z,36.03
2023-06-20T04:58:38.234Z,36.38
2023-06-20T05:01:06.993Z,40.67
2023-06-20T05:03:37.942Z,42.30
2023-06-20T05:06:07.585Z,38.90
2023-06-20T05:08:36.694Z,38.70
2023-06-20T05:11:06.144Z,39.17
2023-06-20T05:13:36.410Z,37.75
2023-06-20T05:16:05.907Z,37.65
2023-06-20T05:18:59.781Z,38.47
2023-06-20T05:21:28.627Z,39.35
2023-06-20T05:23:57.384Z,39.42
2023-06-20T05:26:26.474Z,35.35
2023-06-20T05:28:56.749Z,35.67
2023-06-20T05:31:26.389Z,35.85
2023-06-20T05:33:56.383Z,36.65
2023-06-20T05:36:25.124Z,35.13
2023-06-20T05:38:54.627Z,33.38
2023-06-20T05:41:23.426Z,33.88
2023-06-20T05:43:52.262Z,30.75
2023-06-20T05:46:22.488Z,32.55
2023-06-20T05:48:52.354Z,34.25
2023-06-20T05:51:21.273Z,32.13
2023-06-20T05:53:50.037Z,30.90
2023-06-20T05:56:20.044Z,30.63
2023-06-20T05:58:48.779Z,31.45
2023-06-20T06:01:18.137Z,32.15
2023-06-20T06:03:50.223Z,30.40
2023-06-20T06:06:19.290Z,29.95
2023-06-20T06:08:48.155Z,30.35
2023-06-20T06:11:18.317Z,31.60
2023-06-20T06:13:47.137Z,29.30
2023-06-20T06:16:15.994Z,31.35
2023-06-20T06:18:45.108Z,30.17
2023-06-20T06:21:15.238Z,30.35
2023-06-20T06:23:45.022Z,28.80
2023-06-20T06:26:13.865Z,28.85
2023-06-20T06:28:42.587Z,27.80
2023-06-20T06:31:14.828Z,27.38
2023-06-20T06:33:45.521Z,29.00
2023-06-20T06:36:17.696Z,26.45
2023-06-20T06:38:50.360Z,26.10
2023-06-20T06:41:19.395Z,27.48
2023-06-20T06:43:50.422Z,26.75
2023-06-20T06:46:19.544Z,25.23
2023-06-20T06:48:49.417Z,25.38
2023-06-20T06:51:20.292Z,24.25
2023-06-20T06:53:51.704Z,25.67
2023-06-20T06:56:20.553Z,27.50
2023-06-20T06:58:49.372Z,25.58
2023-06-20T07:01:18.278Z,25.65
2023-06-20T07:03:47.287Z,23.55
2023-06-20T07:06:17.308Z,22.77
2023-06-20T07:08:47.482Z,23.08
2023-06-20T07:11:21.424Z,24.17
2023-06-20T07:13:50.246Z,25.70
2023-06-20T07:16:19.407Z,26.15
2023-06-20T07:18:48.176Z,22.67
2023-06-20T07:21:18.255Z,26.02
2023-06-20T07:23:48.480Z,23.77
2023-06-20T07:26:17.273Z,22.65
2023-06-20T07:28:46.050Z,25.05
2023-06-20T07:31:19.125Z,21.88
2023-06-20T07:33:48.392Z,21.85
2023-06-20T07:36:17.137Z,19.60
2023-06-20T07:38:47.400Z,20.48
2023-06-20T07:41:16.266Z,24.42
2023-06-20T07:43:45.249Z,23.40
2023-06-20T07:46:14.032Z,22.15
2023-06-20T07:48:42.962Z,22.55
2023-06-20T07:51:11.754Z,22.27
2023-06-20T07:53:41.319Z,21.00
2023-06-20T07:56:11.571Z,22.48
2023-06-20T07:58:42.422Z,24.45
2023-06-20T08:01:13.982Z,22.55
2023-06-20T08:03:44.346Z,20.67
2023-06-20T08:06:13.463Z,20.63
2023-06-20T08:08:43.152Z,19.92
2023-06-20T08:11:13.466Z,22.02
2023-06-20T08:13:42.217Z,19.55
2023-06-20T08:16:11.409Z,19.55
2023-06-20T08:18:40.317Z,24.42
2023-06-20T08:21:09.120Z,21.88
2023-06-20T08:23:37.889Z,18.75
2023-06-20T08:26:06.663Z,21.35
2023-06-20T08:28:36.987Z,22.88
2023-06-20T08:31:06.629Z,21.27
2023-06-20T08:33:35.460Z,18.73
2023-06-20T08:36:04.347Z,18.90
2023-06-20T08:38:33.147Z,20.55
2023-06-20T08:41:02.967Z,19.10
2023-06-20T08:43:31.875Z,19.77
2023-06-20T08:46:02.448Z,18.90
2023-06-20T08:48:31.304Z,18.00
2023-06-20T08:51:00.159Z,18.10
2023-06-20T08:53:29.698Z,18.52
2023-06-20T08:55:58.904Z,18.00
2023-06-20T08:58:27.896Z,18.42
2023-06-20T09:00:58.149Z,16.98
2023-06-20T09:03:28.790Z,15.68
2023-06-20T09:05:58.129Z,16.95
2023-06-20T09:08:35.695Z,17.25
2023-06-20T09:11:08.598Z,19.10
2023-06-20T09:13:37.698Z,22.67
2023-06-20T09:16:08.825Z,17.02
2023-06-20T09:18:42.314Z,15.40
2023-06-20T09:21:18.156Z,16.50
2023-06-20T09:23:49.824Z,17.77
2023-06-20T09:26:19.783Z,20.10
2023-06-20T09:28:51.952Z,16.80
2023-06-20T09:31:21.673Z,14.35
2023-06-20T09:33:53.186Z,15.95
2023-06-20T09:36:24.439Z,15.35
2023-06-20T09:38:57.625Z,14.45
2023-06-20T09:41:28.031Z,14.70
2023-06-20T09:43:57.900Z,16.30
2023-06-20T09:46:27.955Z,13.02
2023-06-20T09:49:02.457Z,15.95
2023-06-20T09:51:35.818Z,13.48
2023-06-20T09:54:08.775Z,15.95
2023-06-20T09:56:46.079Z,16.52
2023-06-20T09:59:17.843Z,17.17
2023-06-20T10:01:47.355Z,15.60
2023-06-20T10:04:19.677Z,16.15
2023-06-20T10:06:50.336Z,15.00
2023-06-20T10:09:21.034Z,15.75
2023-06-20T10:11:51.466Z,15.18
2023-06-20T10:14:22.153Z,19.38
2023-06-20T10:16:54.316Z,19.17
2023-06-20T10:19:25.858Z,13.70
2023-06-20T10:21:58.786Z,14.35
2023-06-20T10:24:31.464Z,13.55
2023-06-20T10:27:03.192Z,13.20
2023-06-20T10:29:44.344Z,14.38
2023-06-20T10:32:17.710Z,14.10
2023-06-20T10:35:03.065Z,17.05
2023-06-20T10:37:41.367Z,14.68
2023-06-20T10:40:12.545Z,14.90
2023-06-20T10:42:45.323Z,12.27
2023-06-20T10:45:25.711Z,13.07
2023-06-20T10:47:56.911Z,13.63
2023-06-20T10:50:32.009Z,13.90
2023-06-20T10:53:08.051Z,13.35
2023-06-20T10:55:41.683Z,13.18
2023-06-20T10:58:28.089Z,12.05
2023-06-20T11:01:03.209Z,13.73
2023-06-20T11:03:33.473Z,13.25
2023-06-20T11:06:06.015Z,11.40
2023-06-20T11:08:38.890Z,14.40
2023-06-20T11:11:16.916Z,11.77
2023-06-20T11:13:47.839Z,11.93
2023-06-20T11:16:23.815Z,12.65
2023-06-20T11:18:54.574Z,11.38
2023-06-20T11:21:26.876Z,9.80
2023-06-20T11:24:02.497Z,9.85
2023-06-20T11:26:33.806Z,9.68
2023-06-20T11:29:14.272Z,9.20
2023-06-20T11:31:45.535Z,10.98
2023-06-20T11:34:18.290Z,9.60
2023-06-20T11:36:56.533Z,10.27
2023-06-20T11:39:29.919Z,10.43
2023-06-20T11:42:11.830Z,11.02
2023-06-20T11:45:27.123Z,11.20
2023-06-20T11:48:16.519Z,11.23
2023-06-20T11:51:35.776Z,11.18
2023-06-20T11:54:11.860Z,10.88
2023-06-20T11:57:14.124Z,11.93
2023-06-20T12:03:09.307Z,11.38
2023-06-20T12:05:50.086Z,10.55
2023-06-20T12:08:29.306Z,10.02
2023-06-20T12:11:03.024Z,9.05
2023-06-20T12:13:34.367Z,11.38
2023-06-20T12:16:08.056Z,11.73
2023-06-20T12:18:41.081Z,11.75
2023-06-20T12:21:47.621Z,12.43
2023-06-20T12:24:23.508Z,10.80
2023-06-20T12:26:56.581Z,10.73
2023-06-20T12:29:26.595Z,12.07
2023-06-20T12:31:57.133Z,11.52
2023-06-20T12:34:27.389Z,10.85
2023-06-20T12:36:57.250Z,11.73
2023-06-20T12:39:29.264Z,11.13
2023-06-20T12:42:00.654Z,12.50
2023-06-20T12:44:32.753Z,11.93
2023-06-20T12:47:02.582Z,10.95
2023-06-20T12:49:35.483Z,10.70
2023-06-20T12:52:05.843Z,12.38
2023-06-20T12:54:36.519Z,12.15
2023-06-20T12:57:08.687Z,11.75
2023-06-20T12:59:38.522Z,10.02
2023-06-20T13:02:08.955Z,10.30
2023-06-20T13:04:50.531Z,12.27
2023-06-20T13:07:22.800Z,12.77
2023-06-20T13:09:54.563Z,11.50
2023-06-20T13:12:27.903Z,11.32
2023-06-20T13:15:07.126Z,10.27
2023-06-20T13:17:39.011Z,11.60
2023-06-20T13:20:10.572Z,10.55
2023-06-20T13:22:41.338Z,10.35
2023-06-20T13:25:13.310Z,9.32
2023-06-20T13:27:45.571Z,9.55
2023-06-20T13:30:18.460Z,9.20
2023-06-20T13:32:49.236Z,10.25
2023-06-20T13:35:23.146Z,9.57
2023-06-20T13:37:54.765Z,8.93
2023-06-20T13:40:31.870Z,9.73
2023-06-20T13:43:08.107Z,10.02
2023-06-20T13:45:40.367Z,9.45
2023-06-20T13:48:10.418Z,10.73
2023-06-20T13:50:40.656Z,10.30
2023-06-20T13:53:13.769Z,10.15
2023-06-20T13:55:45.625Z,10.48
2023-06-20T13:58:17.109Z,9.57
2023-06-20T14:00:46.843Z,9.30
2023-06-20T14:03:17.261Z,10.00
2023-06-20T14:05:46.804Z,9.63
2023-06-20T14:08:17.752Z,10.10
2023-06-20T14:10:47.828Z,9.73
2023-06-20T14:13:20.786Z,9.38
2023-06-20T14:15:50.003Z,9.77
2023-06-20T14:18:19.701Z,9.18
2023-06-20T14:20:49.159Z,9.82
2023-06-20T14:23:18.291Z,9.60
2023-06-20T14:25:48.052Z,10.05
2023-06-20T14:28:25.401Z,9.63
2023-06-20T14:30:55.180Z,10.20
2023-06-20T14:33:26.131Z,10.45
2023-06-20T14:35:56.100Z,9.90
2023-06-20T14:38:25.399Z,9.70
2023-06-20T14:40:55.160Z,10.35
2023-06-20T14:43:26.330Z,10.25
2023-06-20T14:45:57.755Z,9.73
2023-06-20T14:48:27.440Z,9.20
2023-06-20T14:50:56.789Z,9.40
2023-06-20T14:53:26.649Z,9.43
2023-06-20T14:55:56.339Z,9.65
2023-06-20T14:58:27.258Z,9.10
2023-06-20T15:00:58.401Z,9.18
2023-06-20T15:03:28.622Z,9.77
2023-06-20T15:05:59.261Z,10.85
2023-06-20T15:08:30.849Z,9.70
2023-06-20T15:11:01.606Z,10.10
2023-06-20T15:13:33.050Z,9.95
2023-06-20T15:16:02.984Z,9.77
2023-06-20T15:18:32.793Z,10.73
2023-06-20T15:21:02.711Z,10.60
2023-06-20T15:23:33.909Z,9.82
2023-06-20T15:26:06.796Z,10.15
2023-06-20T15:28:38.167Z,10.57
2023-06-20T15:31:12.555Z,9.35
2023-06-20T15:33:43.493Z,9.98
2023-06-20T15:36:13.396Z,9.27
2023-06-20T15:38:43.041Z,9.75
2023-06-20T15:41:12.725Z,9.43
2023-06-20T15:43:44.336Z,10.32
2023-06-20T15:46:14.654Z,10.43
2023-06-20T15:48:58.845Z,10.52
2023-06-20T15:51:30.485Z,10.93
2023-06-20T15:54:00.861Z,10.60
2023-06-20T15:56:32.263Z,10.68
2023-06-20T15:59:04.170Z,10.23
2023-06-20T16:01:36.355Z,9.95
2023-06-20T16:04:08.926Z,10.25
2023-06-20T16:06:39.846Z,9.95
2023-06-20T16:09:11.123Z,9.20
2023-06-20T16:11:41.239Z,9.85
2023-06-20T16:14:13.606Z,9.60
2023-06-20T16:16:43.676Z,10.07
2023-06-20T16:19:13.925Z,9.95
2023-06-20T16:21:43.957Z,8.73
2023-06-20T16:24:17.473Z,9.30
2023-06-20T16:26:47.365Z,9.57
2023-06-20T16:29:21.697Z,9.20
2023-06-20T16:31:52.587Z,8.90
2023-06-20T16:34:22.553Z,8.93
2023-06-20T16:36:53.525Z,8.23
2023-06-20T16:39:26.787Z,8.93
2023-06-20T16:41:56.780Z,8.65
2023-06-20T16:44:30.814Z,8.90
2023-06-20T16:47:02.802Z,8.38
2023-06-20T16:49:35.782Z,7.93
2023-06-20T16:52:10.109Z,8.00
2023-06-20T16:54:41.190Z,7.55
2023-06-20T16:57:12.997Z,7.90
2023-06-20T16:59:52.288Z,7.57
2023-06-20T17:02:23.902Z,8.30
2023-06-20T17:04:54.529Z,7.88
2023-06-20T17:07:27.467Z,8.15
2023-06-20T17:10:01.107Z,8.65
2023-06-20T17:12:31.292Z,8.68
2023-06-20T17:15:02.718Z,9.10
2023-06-20T17:17:34.718Z,8.68
2023-06-20T17:20:04.892Z,8.57
2023-06-20T17:22:35.416Z,9.57
2023-06-20T17:25:07.240Z,9.40
2023-06-20T17:27:37.505Z,9.70
2023-06-20T17:30:12.151Z,8.98
2023-06-20T17:32:47.140Z,8.68
2023-06-20T17:35:20.129Z,9.40
2023-06-20T17:37:50.050Z,9.52
2023-06-20T17:40:21.688Z,9.55
2023-06-20T17:42:52.978Z,10.20
2023-06-20T17:45:24.679Z,9.90
2023-06-20T17:47:54.623Z,10.32
2023-06-20T17:50:26.366Z,9.65
2023-06-20T17:52:56.533Z,10.70
2023-06-20T17:55:27.077Z,8.73
2023-06-20T17:58:01.917Z,9.30
2023-06-20T18:00:34.092Z,8.90
2023-06-20T18:03:04.666Z,9.05
2023-06-20T18:05:39.905Z,7.97
2023-06-20T18:08:10.351Z,8.00
2023-06-20T18:10:40.544Z,8.07
2023-06-20T18:13:11.024Z,8.82
2023-06-20T18:15:44.988Z,7.63
2023-06-20T18:18:17.559Z,8.52
2023-06-20T18:20:51.905Z,9.02
2023-06-20T18:23:22.919Z,8.15
2023-06-20T18:25:53.918Z,7.95
2023-06-20T18:28:25.171Z,8.20
2023-06-20T18:30:58.734Z,8.57
2023-06-20T18:33:28.780Z,8.90
2023-06-20T18:36:03.561Z,8.70
2023-06-20T18:38:34.971Z,8.77
2023-06-20T18:41:05.367Z,8.57
2023-06-20T18:43:35.358Z,7.95
2023-06-20T18:46:07.151Z,9.70
2023-06-20T18:48:37.165Z,9.93
2023-06-20T18:51:08.712Z,9.25
2023-06-20T18:53:39.759Z,8.98
2023-06-20T18:56:10.295Z,9.18
2023-06-20T18:58:45.146Z,9.50
2023-06-20T19:01:19.598Z,8.65
2023-06-20T19:03:55.039Z,9.68
2023-06-20T19:06:26.472Z,9.98
2023-06-20T19:08:57.591Z,9.98
2023-06-20T19:11:30.062Z,9.77
2023-06-20T19:14:01.490Z,10.02
2023-06-20T19:16:35.288Z,9.95
2023-06-20T19:19:05.718Z,9.75
2023-06-20T19:21:36.112Z,10.73
2023-06-20T19:24:07.035Z,11.32
2023-06-20T19:26:38.255Z,11.68
2023-06-20T19:29:08.978Z,10.60
2023-06-20T19:31:45.748Z,9.80
2023-06-20T19:34:16.674Z,10.60
2023-06-20T19:36:48.746Z,13.57
2023-06-20T19:39:18.902Z,13.23
2023-06-20T19:41:50.588Z,13.77
2023-06-20T19:44:24.417Z,15.15
2023-06-20T19:47:06.389Z,12.77
2023-06-20T19:49:53.193Z,15.45
2023-06-20T19:52:28.396Z,13.07
2023-06-20T19:55:00.331Z,12.48
2023-06-20T19:57:38.347Z,12.02
2023-06-20T20:00:13.045Z,12.73
2023-06-20T20:02:45.173Z,12.07
2023-06-20T20:05:16.888Z,12.48
2023-06-20T20:07:48.164Z,12.57
2023-06-20T20:10:22.340Z,15.05
2023-06-20T20:12:53.709Z,14.93
2023-06-20T20:15:27.581Z,14.10
2023-06-20T20:18:13.284Z,15.48
2023-06-20T20:20:46.829Z,14.48
2023-06-20T20:23:30.756Z,16.42
2023-06-20T20:26:12.006Z,16.73
2023-06-20T20:28:42.212Z,16.23
2023-06-20T20:31:16.122Z,15.52
2023-06-20T20:33:51.126Z,15.15
2023-06-20T20:36:22.065Z,15.65
2023-06-20T20:38:54.499Z,14.43
2023-06-20T20:41:25.982Z,13.15
2023-06-20T20:43:58.966Z,13.77
2023-06-20T20:46:31.022Z,14.95
2023-06-20T20:49:05.146Z,13.65
2023-06-20T20:51:38.344Z,13.95
2023-06-20T20:54:14.180Z,14.15
2023-06-20T20:56:58.457Z,14.05
2023-06-20T20:59:30.976Z,13.40
2023-06-20T21:02:04.137Z,14.07
2023-06-20T21:04:37.653Z,14.20
2023-06-20T21:07:12.772Z,14.77
2023-06-20T21:09:44.729Z,16.05
2023-06-20T21:12:16.455Z,15.65
2023-06-20T21:14:48.320Z,15.55
2023-06-20T21:17:20.141Z,17.40
2023-06-20T21:19:51.666Z,20.00
2023-06-20T21:22:23.246Z,19.92
2023-06-20T21:24:57.137Z,20.88
2023-06-20T21:27:28.070Z,19.60
2023-06-20T21:29:58.034Z,17.63
2023-06-20T21:32:27.935Z,17.55
2023-06-20T21:34:59.308Z,17.27
2023-06-20T21:37:28.661Z,18.42
2023-06-20T21:39:57.569Z,17.65
2023-06-20T21:42:26.736Z,16.80
2023-06-20T21:44:55.719Z,17.55
2023-06-20T21:47:24.635Z,16.35
2023-06-20T21:49:54.177Z,17.40
2023-06-20T21:52:24.839Z,16.50
2023-06-20T21:54:53.702Z,17.77
2023-06-20T21:57:22.677Z,16.60
2023-06-20T21:59:51.507Z,19.52
2023-06-20T22:02:21.643Z,18.48
2023-06-20T22:04:50.512Z,18.02
2023-06-20T22:07:19.391Z,16.77
2023-06-20T22:10:02.559Z,17.35
2023-06-20T22:12:33.005Z,15.57
2023-06-20T22:15:02.615Z,18.50
2023-06-20T22:17:32.131Z,17.83
2023-06-20T22:20:01.051Z,18.00
2023-06-20T22:22:29.960Z,17.77
2023-06-20T22:25:00.278Z,18.52
2023-06-20T22:27:29.745Z,18.58
2023-06-20T22:30:00.882Z,19.17
2023-06-20T22:32:30.999Z,18.75
2023-06-20T22:34:59.787Z,18.00
2023-06-20T22:37:29.076Z,18.50
2023-06-20T22:39:59.526Z,18.58
2023-06-20T22:42:28.472Z,18.30
2023-06-20T22:44:57.538Z,19.13
2023-06-20T22:47:26.578Z,18.48
2023-06-20T22:49:55.416Z,18.65
2023-06-20T22:52:24.269Z,20.58
2023-06-20T22:54:53.028Z,21.08
2023-06-20T22:57:23.260Z,20.60
2023-06-20T22:59:53.537Z,20.10
2023-06-20T23:02:22.561Z,18.73
2023-06-20T23:04:52.031Z,20.45
2023-06-20T23:07:20.866Z,19.13
2023-06-20T23:09:49.659Z,19.67
2023-06-20T23:12:18.436Z,19.15
2023-06-20T23:14:48.706Z,20.25
2023-06-20T23:17:17.481Z,20.52
2023-06-20T23:19:46.320Z,21.17
2023-06-20T23:22:18.930Z,19.38
2023-06-20T23:24:48.041Z,19.10
2023-06-20T23:27:17.162Z,21.98
2023-06-20T23:29:47.418Z,21.63
2023-06-20T23:32:17.309Z,20.85
2023-06-20T23:34:46.078Z,20.55
2023-06-20T23:37:14.854Z,18.75
2023-06-20T23:39:43.559Z,20.00
2023-06-20T23:42:13.205Z,20.92
2023-06-20T23:44:43.213Z,21.95
2023-06-20T23:47:14.208Z,19.80
2023-06-20T23:49:43.031Z,20.42
2023-06-20T23:52:11.797Z,19.42
2023-06-20T23:54:40.587Z,19.85
2023-06-20T23:57:09.627Z,19.95
2023-06-20T23:59:38.482Z,19.40
